North Chelmsford, MA (01863)

8:21 PM EDT on September 02, 2014 (GMT -0400)
North Chelmsford | Change Station
CLOSE
Current Station
Personal Weather Station
Location: Chelmsford, MA
Elevation: 143 ft
Nearby Weather Stations

Elev 143 ft 42.63 °N, 71.37 °W | Updated 1 minute ago

Partly Cloudy
Partly Cloudy
76.6 °F
Feels Like 77 °F
N
1.6
Wind Variable Wind from SW
Gusts 2.2 mph

Today
High -- | Low -- °F
--% Chance of Precip.
Yesterday
High -- | Low -- °F
Precip. -- in
6:11 AM 7:18 PM
First Quarter, 56% visible
Pressure 30.49 in
Visibility 10.0 miles
Clouds Clear
Heat Index 77 °F
Dew Point 73 °F
Humidity 89%
Rainfall 0.01 in
Snow Depth Not available.
UV 0 out of 12
Pollen 8.20 out of 12
Air Quality Not available.
Flu Activity Not available.
METAR KASH 022351Z 14004KT 10SM CLR 26/23 A2977 RMK AO2 58010 60030 T02550233 10333 20233 SLP323

More Conditions Fewer Conditions

Pressure 30.49 in
Visibility 10.0 miles
Clouds Clear
Heat Index 77 °F
Dew Point 73 °F
Humidity 89%
Rainfall 0.01 in
Snow Depth Not available.
UV 0 out of 12
Pollen 8.20 out of 12
Air Quality Not available.
Flu Activity Not available.
METAR KASH 022351Z 14004KT 10SM CLR 26/23 A2977 RMK AO2 58010 60030 T02550233 10333 20233 SLP323

More Conditions Fewer Conditions

10-Day Weather Forecast

Almanac

Astronomy

Sep. 02, 2014 Rise Set
Actual Time 6:11 AM EDT 7:18 PM EDT
Civil Twilight 5:42 AM EDT 7:47 PM EDT
Nautical Twilight 5:07 AM EDT 8:21 PM EDT
Astronomical Twilight 4:31 AM EDT 8:57 PM EDT
Moon 2:02 PM EDT (9/2) 11:59 PM EDT (9/2)
Length of Visible Light 14h 04m
Length of Day
13h 06m
Tomorrow will be 2m 47s shorter.
First Quarter, 56% of the Moon is Illuminated
Today
First Quarter
Sep 8
Full
Sep 15
Last Quarter
Sep 24
New
Oct 1
First Quarter

Today's Extremes

State Highs State Lows

Community

WunderPhotos

Upload Photos

1,749,816 photos uploaded!

Nearby

Air Quality

  Air Quality AQ Index Pollutant
Tuesday Good
OZONE
Tuesday Good
PM2.5
Wednesday Good
PM2.5
Wednesday Good
OZONE

Snow Depth

Station Depth Elevation
No new snow has been reported.

Earthquake Activity

City Distance Mag. Time & Date
No recent earthquake activity has been reported nearby.
Minimum magnitude displayed is 2.5.

Coastal Water Temperatures

Place Temperature
Boston, MA 66.9 °F
Providence, RI 75.0 °F
Fall River, MA 75.9 °F
Conimicut Light, RI 73.9 °F

Nearby Weather Stations